Time;durP1;ratioP1;P1;durP2;ratioP2;P2;SDS_P1;SDS_P2;PMS_P1;PMS_P2;Temp;Humidity;BMP_temperature;BMP_pressure;BME280_temperature;BME280_humidity;BME280_pressure;Samples;Min_cycle;Max_cycle;Signal;HPM_P1;HPM_P2
2022/11/29 00:01:52;;;;;;;;;;;8.40;99.90;;;;;;5094760;28;19919;-68
2022/11/29 00:04:18;;;;;;;;;;;8.30;99.90;;;;;;5093002;28;20014;-68
2022/11/29 00:06:43;;;;;;;;;;;8.40;99.90;;;;;;5090249;28;20367;-67
2022/11/29 00:09:10;;;;;;;;;;;8.30;99.90;;;;;;5088596;28;20022;-67
2022/11/29 00:14:21;;;;;;;;;;;8.10;99.90;;;;;;5096369;28;20000;-68
2022/11/29 00:16:54;;;;;;;;;;;8.10;99.90;;;;;;5129794;27;19970;-68
2022/11/29 00:19:20;;;;;;;;;;;8.00;99.90;;;;;;5092800;28;19923;-67
2022/11/29 00:21:46;;;;;;;;;;;8.10;99.90;;;;;;5094607;28;19927;-67
2022/11/29 00:24:12;;;;;;;;;;;8.00;99.90;;;;;;5091284;28;20201;-68
2022/11/29 00:26:37;;;;;;;;;;;8.00;99.90;;;;;;5090633;28;20441;-68
2022/11/29 00:29:03;;;;;;;;;;;7.80;99.90;;;;;;5088604;28;19951;-67
2022/11/29 00:31:30;;;;;;;;;;;7.90;99.90;;;;;;5089100;28;20378;-69
2022/11/29 00:33:56;;;;;;;;;;;7.80;99.90;;;;;;5095568;28;19966;-69
2022/11/29 00:36:21;;;;;;;;;;;7.80;99.90;;;;;;5094425;28;20329;-67
2022/11/29 00:38:47;;;;;;;;;;;7.80;99.90;;;;;;5094223;28;19959;-67
2022/11/29 00:41:12;;;;;;;;;;;7.90;99.90;;;;;;5093852;28;19924;-67
2022/11/29 00:43:38;;;;;;;;;;;7.80;99.90;;;;;;5128890;27;19969;-67
2022/11/29 00:46:04;;;;;;;;;;;7.80;99.90;;;;;;5098623;27;19920;-67
2022/11/29 00:48:30;;;;;;;;;;;7.90;99.90;;;;;;5091935;27;19949;-67
2022/11/29 00:50:55;;;;;;;;;;;7.70;99.90;;;;;;5099207;27;20401;-68
2022/11/29 00:53:21;;;;;;;;;;;7.90;99.90;;;;;;5124644;27;20405;-67
2022/11/29 00:55:47;;;;;;;;;;;7.70;99.90;;;;;;5098727;28;19931;-69
2022/11/29 00:58:12;;;;;;;;;;;7.80;99.90;;;;;;5094346;27;20015;-67
2022/11/29 01:00:38;;;;;;;;;;;7.80;99.90;;;;;;5096006;27;21775;-67
2022/11/29 01:03:03;;;;;;;;;;;7.70;99.90;;;;;;5095235;27;19977;-67
2022/11/29 01:05:29;;;;;;;;;;;7.80;99.90;;;;;;5093154;27;19974;-67
2022/11/29 01:07:55;;;;;;;;;;;7.70;99.90;;;;;;5098274;27;19931;-68
2022/11/29 01:10:20;;;;;;;;;;;7.70;99.90;;;;;;5077674;28;19965;-67
2022/11/29 01:12:46;;;;;;;;;;;7.70;99.90;;;;;;5076814;28;19924;-67
2022/11/29 01:15:11;;;;;;;;;;;7.80;99.90;;;;;;5081088;28;19927;-67
2022/11/29 01:17:38;;;;;;;;;;;7.70;99.90;;;;;;5075481;27;19920;-66
2022/11/29 01:20:04;;;;;;;;;;;7.70;99.90;;;;;;5077711;27;19920;-67
2022/11/29 01:22:30;;;;;;;;;;;7.70;99.90;;;;;;5111944;27;19927;-67
2022/11/29 01:24:55;;;;;;;;;;;7.70;99.90;;;;;;5063217;28;19977;-67
2022/11/29 01:27:21;;;;;;;;;;;7.80;99.90;;;;;;5079301;28;21114;-67
2022/11/29 01:29:46;;;;;;;;;;;7.70;99.90;;;;;;5116695;27;19928;-67
2022/11/29 01:32:12;;;;;;;;;;;7.70;99.90;;;;;;5082882;27;19949;-67
2022/11/29 01:34:37;;;;;;;;;;;7.70;99.90;;;;;;5061362;27;19924;-67
2022/11/29 01:37:03;;;;;;;;;;;7.70;99.90;;;;;;5108766;27;20014;-67
2022/11/29 01:39:28;;;;;;;;;;;7.70;99.90;;;;;;5079873;28;19972;-68
2022/11/29 01:41:54;;;;;;;;;;;7.80;99.90;;;;;;5075732;27;19924;-67
2022/11/29 01:44:19;;;;;;;;;;;7.70;99.90;;;;;;5112716;27;21195;-68
2022/11/29 01:46:47;;;;;;;;;;;7.80;99.90;;;;;;5072006;28;19919;-67
2022/11/29 01:49:21;;;;;;;;;;;7.80;99.90;;;;;;5078826;28;19946;-67
2022/11/29 01:51:56;;;;;;;;;;;7.70;99.90;;;;;;5083664;28;19923;-67
2022/11/29 01:54:22;;;;;;;;;;;7.70;99.90;;;;;;5120723;27;19927;-67
2022/11/29 01:56:48;;;;;;;;;;;7.90;99.90;;;;;;5083705;28;19923;-68
2022/11/29 01:59:16;;;;;;;;;;;7.80;99.90;;;;;;5112315;27;19920;-69
2022/11/29 02:01:41;;;;;;;;;;;7.80;99.90;;;;;;5101650;27;19923;-68
2022/11/29 02:04:07;;;;;;;;;;;7.80;99.90;;;;;;5085216;27;20302;-68
2022/11/29 02:06:33;;;;;;;;;;;7.80;99.90;;;;;;5082251;28;20001;-67
2022/11/29 02:08:59;;;;;;;;;;;7.90;99.90;;;;;;5085166;28;20036;-67
2022/11/29 02:11:27;;;;;;;;;;;7.80;99.90;;;;;;5101863;27;19953;-68
2022/11/29 02:14:03;;;;;;;;;;;8.00;99.90;;;;;;5098545;27;19924;-67
2022/11/29 02:16:28;;;;;;;;;;;7.90;99.90;;;;;;5099226;27;19919;-67
2022/11/29 02:18:57;;;;;;;;;;;7.80;99.90;;;;;;5129037;27;20416;-68
2022/11/29 02:21:41;;;;;;;;;;;7.90;99.90;;;;;;5094639;27;19924;-67
2022/11/29 02:24:12;;;;;;;;;;;7.90;99.90;;;;;;5129687;27;19924;-68
2022/11/29 02:26:41;;;;;;;;;;;7.90;99.90;;;;;;5093417;28;19920;-68
2022/11/29 02:29:06;;;;;;;;;;;7.90;99.90;;;;;;5096113;27;19967;-68
2022/11/29 02:31:50;;;;;;;;;;;7.80;99.90;;;;;;5098698;28;20362;-68
2022/11/29 02:34:38;;;;;;;;;;;7.90;99.90;;;;;;5102086;27;19920;-67
2022/11/29 02:37:09;;;;;;;;;;;7.80;99.90;;;;;;5097373;27;19931;-68
2022/11/29 02:39:35;;;;;;;;;;;7.90;99.90;;;;;;5097963;28;19951;-67
2022/11/29 02:42:15;;;;;;;;;;;7.90;99.90;;;;;;5088258;28;19970;-67
2022/11/29 02:44:51;;;;;;;;;;;7.90;99.90;;;;;;5096546;27;20289;-68
2022/11/29 02:47:25;;;;;;;;;;;8.00;99.90;;;;;;5090508;28;20383;-68
2022/11/29 02:50:10;;;;;;;;;;;7.80;99.90;;;;;;5088961;28;19934;-68
2022/11/29 02:53:00;;;;;;;;;;;7.90;99.90;;;;;;5091973;27;19934;-68
2022/11/29 02:55:40;;;;;;;;;;;7.80;99.90;;;;;;5123839;27;19942;-68
2022/11/29 02:58:09;;;;;;;;;;;7.90;99.90;;;;;;5086099;28;19927;-67
2022/11/29 03:00:37;;;;;;;;;;;7.90;99.90;;;;;;5091755;27;19924;-67
2022/11/29 03:03:23;;;;;;;;;;;7.90;99.90;;;;;;5088558;28;19973;-68
2022/11/29 03:05:52;;;;;;;;;;;7.80;99.90;;;;;;5094036;27;19927;-68
2022/11/29 03:08:56;;;;;;;;;;;7.90;99.90;;;;;;5089301;28;19932;-67
2022/11/29 03:11:27;;;;;;;;;;;7.80;99.90;;;;;;5013372;28;19967;-68
2022/11/29 03:13:52;;;;;;;;;;;7.90;99.90;;;;;;5015563;28;19920;-68
2022/11/29 03:16:33;;;;;;;;;;;7.90;99.90;;;;;;5051459;28;19920;-67
2022/11/29 03:19:17;;;;;;;;;;;7.80;99.90;;;;;;5128797;27;19920;-67
2022/11/29 03:22:02;;;;;;;;;;;7.80;99.90;;;;;;5089086;27;20134;-68
2022/11/29 03:24:35;;;;;;;;;;;7.70;99.90;;;;;;5093652;28;19927;-66
2022/11/29 03:27:05;;;;;;;;;;;7.80;99.90;;;;;;5094891;27;19975;-67
2022/11/29 03:29:37;;;;;;;;;;;7.70;99.90;;;;;;5087526;28;19930;-68
2022/11/29 03:32:08;;;;;;;;;;;7.80;99.90;;;;;;5099273;28;20297;-67
2022/11/29 03:34:51;;;;;;;;;;;7.80;99.90;;;;;;5090443;28;20003;-67
2022/11/29 03:37:18;;;;;;;;;;;7.70;99.90;;;;;;5089676;28;20230;-67
2022/11/29 03:39:44;;;;;;;;;;;7.80;99.90;;;;;;5092782;28;19979;-69
2022/11/29 03:42:12;;;;;;;;;;;7.70;99.90;;;;;;5075188;28;20304;-68
2022/11/29 03:44:40;;;;;;;;;;;7.70;99.90;;;;;;5090410;28;20327;-68
2022/11/29 03:47:08;;;;;;;;;;;7.70;99.90;;;;;;5092209;28;19924;-68
2022/11/29 03:50:06;;;;;;;;;;;7.70;99.90;;;;;;5091351;28;19959;-68
2022/11/29 03:52:50;;;;;;;;;;;7.70;99.90;;;;;;5064988;28;19920;-68
2022/11/29 03:55:25;;;;;;;;;;;7.50;99.90;;;;;;5093032;28;19923;-68
2022/11/29 03:58:06;;;;;;;;;;;7.60;99.90;;;;;;5089848;28;20286;-68
2022/11/29 04:00:44;;;;;;;;;;;7.50;99.90;;;;;;5082896;28;19966;-68
2022/11/29 04:03:28;;;;;;;;;;;7.60;99.90;;;;;;5095829;28;20509;-68
2022/11/29 04:06:02;;;;;;;;;;;7.60;99.90;;;;;;5093844;28;20014;-68
2022/11/29 04:08:37;;;;;;;;;;;7.50;99.90;;;;;;5095283;28;19931;-67
2022/11/29 04:11:22;;;;;;;;;;;7.50;99.90;;;;;;5088811;28;20386;-68
2022/11/29 04:14:06;;;;;;;;;;;7.40;99.90;;;;;;5093190;28;19920;-68
2022/11/29 04:16:55;;;;;;;;;;;7.40;99.90;;;;;;5092699;27;19951;-68
2022/11/29 04:19:39;;;;;;;;;;;7.40;99.90;;;;;;5053199;27;20575;-68
2022/11/29 04:22:17;;;;;;;;;;;7.40;99.90;;;;;;5098867;27;20290;-69
2022/11/29 04:25:03;;;;;;;;;;;7.40;99.90;;;;;;5094978;27;20416;-67
2022/11/29 04:27:29;;;;;;;;;;;7.40;99.90;;;;;;5095719;27;19928;-69
2022/11/29 04:30:09;;;;;;;;;;;7.40;99.90;;;;;;5093845;27;20446;-68
2022/11/29 04:32:57;;;;;;;;;;;7.30;99.90;;;;;;5113427;27;19926;-68
2022/11/29 04:35:40;;;;;;;;;;;7.30;99.90;;;;;;5090812;27;19974;-68
2022/11/29 04:38:05;;;;;;;;;;;7.40;99.90;;;;;;5097631;27;19924;-68
2022/11/29 04:40:40;;;;;;;;;;;7.30;99.90;;;;;;5096875;28;20056;-69
2022/11/29 04:43:09;;;;;;;;;;;7.40;99.90;;;;;;5136513;27;19965;-68
2022/11/29 04:45:41;;;;;;;;;;;7.40;99.90;;;;;;5095814;28;19920;-68
2022/11/29 04:48:23;;;;;;;;;;;7.30;99.90;;;;;;5097337;27;19924;-68
2022/11/29 04:50:59;;;;;;;;;;;7.30;99.90;;;;;;5095255;27;19920;-69
2022/11/29 04:53:30;;;;;;;;;;;7.30;99.90;;;;;;5098601;27;19927;-68
2022/11/29 04:56:19;;;;;;;;;;;7.20;99.90;;;;;;5091883;27;19920;-68
2022/11/29 04:58:51;;;;;;;;;;;7.40;99.90;;;;;;5086463;28;20064;-68
2022/11/29 05:01:22;;;;;;;;;;;7.30;99.90;;;;;;5090631;28;19931;-68
2022/11/29 05:04:01;;;;;;;;;;;7.30;99.90;;;;;;5100188;28;19931;-69
2022/11/29 05:06:37;;;;;;;;;;;7.30;99.90;;;;;;5095771;27;19920;-68
2022/11/29 05:09:17;;;;;;;;;;;7.20;99.90;;;;;;5101758;27;19935;-69
2022/11/29 05:12:01;;;;;;;;;;;7.30;99.90;;;;;;5092314;27;19970;-68
2022/11/29 05:14:34;;;;;;;;;;;7.30;99.90;;;;;;5097245;27;19920;-68
2022/11/29 05:17:18;;;;;;;;;;;7.20;99.90;;;;;;5091390;27;19927;-68
2022/11/29 05:19:44;;;;;;;;;;;7.30;99.90;;;;;;5093058;27;20544;-68
2022/11/29 05:22:12;;;;;;;;;;;7.30;99.90;;;;;;5100764;27;19931;-68
2022/11/29 05:24:43;;;;;;;;;;;7.30;99.90;;;;;;5095883;28;20291;-69
2022/11/29 05:27:16;;;;;;;;;;;7.30;99.90;;;;;;5128276;27;19935;-68
2022/11/29 05:29:48;;;;;;;;;;;7.20;99.90;;;;;;5099232;28;19924;-68
2022/11/29 05:32:32;;;;;;;;;;;7.20;99.90;;;;;;5095036;27;19971;-67
2022/11/29 05:34:57;;;;;;;;;;;7.30;99.90;;;;;;5096666;27;19928;-67
2022/11/29 05:37:29;;;;;;;;;;;7.20;99.90;;;;;;5097011;28;20347;-69
2022/11/29 05:40:18;;;;;;;;;;;7.30;99.90;;;;;;5128901;27;19988;-69
2022/11/29 05:42:53;;;;;;;;;;;7.30;99.90;;;;;;5076229;28;20277;-68
2022/11/29 05:45:31;;;;;;;;;;;7.20;99.90;;;;;;5125197;27;20430;-69
2022/11/29 05:48:13;;;;;;;;;;;7.30;99.90;;;;;;5093887;28;19924;-68
2022/11/29 05:50:41;;;;;;;;;;;7.30;99.90;;;;;;5121148;27;19920;-69
2022/11/29 05:53:15;;;;;;;;;;;7.30;99.90;;;;;;5133424;27;19920;-68
2022/11/29 05:55:59;;;;;;;;;;;7.20;99.90;;;;;;5096853;27;19926;-68
2022/11/29 05:58:42;;;;;;;;;;;7.30;99.90;;;;;;5130198;27;20358;-68
2022/11/29 06:01:15;;;;;;;;;;;7.20;99.90;;;;;;5097891;27;20018;-68
2022/11/29 06:03:49;;;;;;;;;;;7.20;99.90;;;;;;5128174;27;19924;-68
2022/11/29 06:06:17;;;;;;;;;;;7.10;99.90;;;;;;5112574;27;19924;-68
2022/11/29 06:08:52;;;;;;;;;;;7.20;99.90;;;;;;5127811;27;19924;-68
2022/11/29 06:11:23;;;;;;;;;;;7.00;99.90;;;;;;5123960;27;19970;-67
2022/11/29 06:13:59;;;;;;;;;;;7.20;99.90;;;;;;5090156;27;19920;-67
2022/11/29 06:16:38;;;;;;;;;;;7.20;99.90;;;;;;5123177;27;19983;-67
2022/11/29 06:19:23;;;;;;;;;;;7.10;99.90;;;;;;5127656;27;19920;-67
2022/11/29 06:22:04;;;;;;;;;;;7.20;99.90;;;;;;5129780;27;19920;-69
2022/11/29 06:24:38;;;;;;;;;;;7.20;99.90;;;;;;5098881;28;19945;-68
2022/11/29 06:27:39;;;;;;;;;;;7.10;99.90;;;;;;5127282;27;19924;-67
2022/11/29 06:30:08;;;;;;;;;;;7.20;99.90;;;;;;5001962;28;19936;-68
2022/11/29 06:32:33;;;;;;;;;;;7.10;99.90;;;;;;5081837;27;19924;-69
2022/11/29 06:35:03;;;;;;;;;;;7.10;99.90;;;;;;5092698;28;19920;-68
2022/11/29 06:37:33;;;;;;;;;;;7.10;99.90;;;;;;5093979;27;20441;-69
2022/11/29 06:39:59;;;;;;;;;;;7.00;99.90;;;;;;5130317;27;19920;-68
2022/11/29 06:42:25;;;;;;;;;;;7.10;99.90;;;;;;5096744;27;20294;-68
2022/11/29 06:44:50;;;;;;;;;;;7.00;99.90;;;;;;5094499;27;20635;-68
2022/11/29 06:47:36;;;;;;;;;;;7.00;99.90;;;;;;5100414;28;19974;-68
2022/11/29 06:50:22;;;;;;;;;;;7.10;99.90;;;;;;5093919;27;19924;-68
2022/11/29 06:52:57;;;;;;;;;;;7.00;99.90;;;;;;5129407;27;19964;-69
2022/11/29 06:55:45;;;;;;;;;;;7.00;99.90;;;;;;5094522;28;19928;-67
2022/11/29 06:58:40;;;;;;;;;;;7.00;99.90;;;;;;5108502;27;19920;-68
2022/11/29 07:01:12;;;;;;;;;;;7.00;99.90;;;;;;5026521;28;20097;-69
2022/11/29 07:03:56;;;;;;;;;;;6.90;99.90;;;;;;5088558;28;19931;-69
2022/11/29 07:06:26;;;;;;;;;;;7.00;99.90;;;;;;5102971;27;20366;-69
2022/11/29 07:08:59;;;;;;;;;;;6.90;99.90;;;;;;5090072;28;20060;-69
2022/11/29 07:11:25;;;;;;;;;;;6.90;99.90;;;;;;5073738;27;19919;-69
2022/11/29 07:13:51;;;;;;;;;;;6.90;99.90;;;;;;5095603;28;22016;-69
2022/11/29 07:16:22;;;;;;;;;;;6.90;99.90;;;;;;5097318;28;19947;-68
2022/11/29 07:18:57;;;;;;;;;;;7.00;99.90;;;;;;5095634;28;19920;-69
2022/11/29 07:21:22;;;;;;;;;;;6.90;99.90;;;;;;5095343;28;19971;-68
2022/11/29 07:23:54;;;;;;;;;;;7.00;99.90;;;;;;5097392;28;19967;-69
2022/11/29 07:26:26;;;;;;;;;;;7.00;99.90;;;;;;5099708;27;19973;-69
2022/11/29 07:28:51;;;;;;;;;;;6.90;99.90;;;;;;5101072;28;20358;-69
2022/11/29 07:31:26;;;;;;;;;;;6.90;99.90;;;;;;5130477;27;19920;-69
2022/11/29 07:34:04;;;;;;;;;;;7.00;99.90;;;;;;5097586;28;19923;-69
2022/11/29 07:36:30;;;;;;;;;;;6.90;99.90;;;;;;5093852;28;20348;-69
2022/11/29 07:39:11;;;;;;;;;;;6.90;99.90;;;;;;5128956;27;20047;-69
2022/11/29 07:41:45;;;;;;;;;;;6.90;99.90;;;;;;5122529;27;19920;-70
2022/11/29 07:44:22;;;;;;;;;;;6.90;99.90;;;;;;5097858;28;19924;-69
2022/11/29 07:46:48;;;;;;;;;;;6.80;99.90;;;;;;5096437;28;19920;-69
2022/11/29 07:49:13;;;;;;;;;;;6.80;99.90;;;;;;5094786;28;20376;-69
2022/11/29 07:51:39;;;;;;;;;;;6.90;99.90;;;;;;5100490;28;19927;-70
2022/11/29 07:54:04;;;;;;;;;;;6.90;99.90;;;;;;5081925;28;19924;-68
2022/11/29 07:56:30;;;;;;;;;;;6.80;99.90;;;;;;5107498;28;20375;-69
2022/11/29 07:58:55;;;;;;;;;;;6.80;99.90;;;;;;5148776;27;19919;-69
2022/11/29 08:01:21;;;;;;;;;;;6.80;99.90;;;;;;5109532;28;20363;-69
2022/11/29 08:03:46;;;;;;;;;;;6.80;99.90;;;;;;5114184;28;19977;-69
2022/11/29 08:06:12;;;;;;;;;;;6.90;99.90;;;;;;5104478;28;19928;-69
2022/11/29 08:08:37;;;;;;;;;;;6.80;99.90;;;;;;5113882;28;19950;-69
2022/11/29 08:11:10;;;;;;;;;;;6.70;99.90;;;;;;5105086;28;19979;-70
2022/11/29 08:13:35;;;;;;;;;;;6.90;99.90;;;;;;5130952;27;20255;-70
2022/11/29 08:16:01;;;;;;;;;;;6.80;99.90;;;;;;5107984;27;20332;-69
2022/11/29 08:18:26;;;;;;;;;;;6.90;99.90;;;;;;5105062;28;19919;-70
2022/11/29 08:20:52;;;;;;;;;;;6.90;99.90;;;;;;5105417;27;19920;-69
2022/11/29 08:23:18;;;;;;;;;;;6.80;99.90;;;;;;5119884;27;19916;-69
2022/11/29 08:25:44;;;;;;;;;;;6.90;99.90;;;;;;5102346;28;19928;-69
2022/11/29 08:28:10;;;;;;;;;;;6.90;99.90;;;;;;5142799;27;19930;-70
2022/11/29 08:30:36;;;;;;;;;;;6.80;99.90;;;;;;5098775;27;19920;-69
2022/11/29 08:33:01;;;;;;;;;;;6.90;99.90;;;;;;5102365;27;19919;-69
2022/11/29 08:35:27;;;;;;;;;;;6.90;99.90;;;;;;5098461;28;19928;-70
2022/11/29 08:37:53;;;;;;;;;;;6.90;99.90;;;;;;5101327;27;19931;-69
2022/11/29 08:40:18;;;;;;;;;;;7.00;99.90;;;;;;5081823;27;19974;-70
2022/11/29 08:42:44;;;;;;;;;;;6.90;99.90;;;;;;5126150;27;19924;-69
2022/11/29 08:45:09;;;;;;;;;;;6.90;99.90;;;;;;5095797;27;19932;-70
2022/11/29 08:47:35;;;;;;;;;;;7.00;99.90;;;;;;5104521;27;19924;-69
2022/11/29 08:50:14;;;;;;;;;;;7.00;99.90;;;;;;5120221;27;19980;-69
2022/11/29 08:55:29;;;;;;;;;;;7.00;99.90;;;;;;5106640;28;19927;-69
2022/11/29 08:58:00;;;;;;;;;;;7.20;99.90;;;;;;5112421;28;20318;-70
2022/11/29 09:00:25;;;;;;;;;;;7.10;99.90;;;;;;5103193;28;19924;-69
2022/11/29 09:02:50;;;;;;;;;;;7.20;99.90;;;;;;5088640;28;20332;-70
2022/11/29 09:05:16;;;;;;;;;;;7.20;99.90;;;;;;5106792;28;19934;-69
2022/11/29 09:07:42;;;;;;;;;;;7.00;99.90;;;;;;5104106;28;20014;-68
2022/11/29 09:10:08;;;;;;;;;;;7.00;99.90;;;;;;5082100;28;19926;-70
2022/11/29 09:12:34;;;;;;;;;;;7.10;99.90;;;;;;5092998;28;19924;-70
2022/11/29 09:15:00;;;;;;;;;;;7.20;99.90;;;;;;5083637;28;20026;-69
2022/11/29 09:17:25;;;;;;;;;;;7.20;99.90;;;;;;5103215;28;20354;-69
2022/11/29 09:19:51;;;;;;;;;;;7.20;99.90;;;;;;5124487;27;19924;-69
2022/11/29 09:22:17;;;;;;;;;;;7.30;99.90;;;;;;5108924;27;19924;-70
2022/11/29 09:24:45;;;;;;;;;;;7.40;99.90;;;;;;5079996;28;20018;-70
2022/11/29 09:27:10;;;;;;;;;;;7.20;99.90;;;;;;5094343;28;19972;-70
2022/11/29 09:29:36;;;;;;;;;;;7.20;99.90;;;;;;5093185;28;19920;-69
2022/11/29 09:32:01;;;;;;;;;;;7.20;99.90;;;;;;5090007;27;20324;-71
2022/11/29 09:34:27;;;;;;;;;;;7.30;99.90;;;;;;5091645;28;19928;-69
2022/11/29 09:36:52;;;;;;;;;;;7.30;99.90;;;;;;5086028;28;19947;-69
2022/11/29 09:39:18;;;;;;;;;;;7.30;99.90;;;;;;5092728;28;19916;-69
2022/11/29 09:41:55;;;;;;;;;;;7.20;99.90;;;;;;5121312;27;19919;-70
2022/11/29 09:44:23;;;;;;;;;;;7.20;99.90;;;;;;5109109;28;19939;-69
2022/11/29 09:46:55;;;;;;;;;;;7.20;99.90;;;;;;5074187;28;19920;-70
2022/11/29 09:49:41;;;;;;;;;;;7.10;99.90;;;;;;5118188;27;20335;-69
2022/11/29 09:52:26;;;;;;;;;;;7.10;99.90;;;;;;5096530;27;19967;-70
2022/11/29 09:55:11;;;;;;;;;;;7.10;99.90;;;;;;5082887;28;19931;-69
2022/11/29 09:57:37;;;;;;;;;;;7.20;99.90;;;;;;5090478;27;19919;-69
2022/11/29 10:00:04;;;;;;;;;;;7.20;99.90;;;;;;5085889;28;21821;-68
2022/11/29 10:02:34;;;;;;;;;;;7.20;99.90;;;;;;5073618;28;19967;-70
2022/11/29 10:05:15;;;;;;;;;;;7.10;99.90;;;;;;5074576;28;19927;-69
2022/11/29 10:07:55;;;;;;;;;;;7.10;99.90;;;;;;5086582;28;20010;-70
2022/11/29 10:10:26;;;;;;;;;;;7.10;99.90;;;;;;5093387;28;19994;-69
2022/11/29 10:13:10;;;;;;;;;;;7.10;99.90;;;;;;5079962;28;19920;-70
2022/11/29 10:15:42;;;;;;;;;;;7.20;99.90;;;;;;5071890;28;20291;-69
2022/11/29 10:18:26;;;;;;;;;;;7.20;99.90;;;;;;5107926;28;20382;-69
2022/11/29 10:20:56;;;;;;;;;;;7.30;99.90;;;;;;5083009;28;20397;-69
2022/11/29 10:23:28;;;;;;;;;;;7.40;99.90;;;;;;5073411;28;19981;-69
2022/11/29 10:25:54;;;;;;;;;;;7.30;99.90;;;;;;5074040;28;20373;-68
2022/11/29 10:28:22;;;;;;;;;;;7.30;99.90;;;;;;5073687;28;20431;-69
2022/11/29 10:30:51;;;;;;;;;;;7.40;99.90;;;;;;5073712;28;19974;-70
2022/11/29 10:33:22;;;;;;;;;;;7.50;99.90;;;;;;5127157;27;20386;-68
2022/11/29 10:35:49;;;;;;;;;;;7.50;99.90;;;;;;5095552;28;19968;-68
2022/11/29 10:38:15;;;;;;;;;;;7.50;99.90;;;;;;5077122;28;20048;-68
2022/11/29 10:40:43;;;;;;;;;;;7.50;99.90;;;;;;5111152;27;20389;-68
2022/11/29 10:43:08;;;;;;;;;;;7.60;99.90;;;;;;5117272;27;19963;-70
2022/11/29 10:45:37;;;;;;;;;;;7.60;99.90;;;;;;5078417;27;20008;-69
2022/11/29 10:48:23;;;;;;;;;;;7.60;99.90;;;;;;5114063;27;19924;-69
2022/11/29 10:50:50;;;;;;;;;;;7.60;99.90;;;;;;5133222;27;19936;-69
2022/11/29 10:53:17;;;;;;;;;;;7.60;99.90;;;;;;5106257;27;19941;-68
2022/11/29 10:55:54;;;;;;;;;;;7.60;99.90;;;;;;5077009;28;19927;-70
2022/11/29 10:58:24;;;;;;;;;;;7.50;99.90;;;;;;5076135;28;19920;-69
2022/11/29 11:00:54;;;;;;;;;;;7.50;99.90;;;;;;5085180;28;19967;-68
2022/11/29 11:03:22;;;;;;;;;;;7.60;99.90;;;;;;5072165;28;19992;-69
2022/11/29 11:05:57;;;;;;;;;;;7.70;99.90;;;;;;5112399;27;19919;-70
2022/11/29 11:08:24;;;;;;;;;;;7.80;99.90;;;;;;5084500;28;19932;-70
2022/11/29 11:10:54;;;;;;;;;;;7.90;99.90;;;;;;5124881;27;20278;-69
2022/11/29 11:13:21;;;;;;;;;;;7.90;99.90;;;;;;5109417;28;20361;-69
2022/11/29 11:15:46;;;;;;;;;;;7.90;99.90;;;;;;5099910;28;19920;-70
2022/11/29 11:18:22;;;;;;;;;;;7.90;99.90;;;;;;5119950;27;19972;-69
2022/11/29 11:20:52;;;;;;;;;;;8.00;99.90;;;;;;5107795;28;20298;-69
2022/11/29 11:23:21;;;;;;;;;;;7.90;99.90;;;;;;5134545;27;19948;-69
2022/11/29 11:25:50;;;;;;;;;;;8.00;99.90;;;;;;5100426;28;20458;-69
2022/11/29 11:28:20;;;;;;;;;;;7.90;99.90;;;;;;5102241;28;19934;-69
2022/11/29 11:30:50;;;;;;;;;;;8.10;99.90;;;;;;5092700;28;19920;-70
2022/11/29 11:33:26;;;;;;;;;;;8.10;99.90;;;;;;5096757;28;19948;-68
2022/11/29 11:36:07;;;;;;;;;;;8.10;99.90;;;;;;5131160;27;19994;-70
2022/11/29 11:38:52;;;;;;;;;;;8.10;99.90;;;;;;5103557;28;20410;-69
2022/11/29 11:44:28;;;;;;;;;;;8.30;99.90;;;;;;5092825;28;19941;-67
2022/11/29 11:46:53;;;;;;;;;;;8.40;99.90;;;;;;5096024;28;19977;-70
2022/11/29 11:49:30;;;;;;;;;;;8.50;99.90;;;;;;5095406;28;20340;-69
2022/11/29 11:51:58;;;;;;;;;;;8.60;99.90;;;;;;5106221;28;19920;-69
2022/11/29 11:54:29;;;;;;;;;;;8.70;99.90;;;;;;5107125;28;20014;-69
2022/11/29 11:56:55;;;;;;;;;;;8.80;99.90;;;;;;5080349;28;19927;-67
2022/11/29 11:59:23;;;;;;;;;;;8.80;99.90;;;;;;5098830;28;20010;-69
2022/11/29 12:01:49;;;;;;;;;;;8.70;99.90;;;;;;5127428;27;20461;-69
2022/11/29 12:04:14;;;;;;;;;;;8.80;99.90;;;;;;5131320;27;20019;-68
2022/11/29 12:06:50;;;;;;;;;;;8.70;99.90;;;;;;5085390;28;19924;-67
2022/11/29 12:09:42;;;;;;;;;;;8.80;99.90;;;;;;5097435;28;19932;-68
2022/11/29 12:12:20;;;;;;;;;;;8.70;99.90;;;;;;5090703;28;19926;-68
2022/11/29 12:14:52;;;;;;;;;;;8.70;99.90;;;;;;5092537;28;20478;-67
2022/11/29 12:17:18;;;;;;;;;;;8.70;99.90;;;;;;5092776;28;19935;-69
2022/11/29 12:20:08;;;;;;;;;;;8.60;99.90;;;;;;5095760;28;19928;-67
2022/11/29 12:22:39;;;;;;;;;;;8.70;99.90;;;;;;5069261;28;19961;-67
2022/11/29 12:25:09;;;;;;;;;;;8.70;99.90;;;;;;5122985;28;20336;-68
2022/11/29 12:27:34;;;;;;;;;;;8.70;99.90;;;;;;5089949;28;19924;-67
2022/11/29 12:30:00;;;;;;;;;;;8.80;99.90;;;;;;5100559;28;19920;-68
2022/11/29 12:32:35;;;;;;;;;;;8.70;99.90;;;;;;5098013;28;19919;-68
2022/11/29 12:35:16;;;;;;;;;;;8.80;99.90;;;;;;5106156;28;19928;-69
2022/11/29 12:37:48;;;;;;;;;;;8.60;99.90;;;;;;5099305;28;19920;-66
2022/11/29 12:40:29;;;;;;;;;;;8.70;99.90;;;;;;5090696;28;19923;-70
2022/11/29 12:43:00;;;;;;;;;;;8.60;99.90;;;;;;5105278;28;20291;-67
2022/11/29 12:45:26;;;;;;;;;;;8.50;99.90;;;;;;5097589;28;19991;-67
2022/11/29 12:47:51;;;;;;;;;;;8.60;99.90;;;;;;5091015;28;19978;-66
2022/11/29 12:50:20;;;;;;;;;;;8.60;99.90;;;;;;5108942;27;20010;-67
2022/11/29 12:52:59;;;;;;;;;;;8.60;99.90;;;;;;5114926;27;19920;-67
2022/11/29 12:55:29;;;;;;;;;;;8.80;99.90;;;;;;5103397;28;19920;-66
2022/11/29 12:58:28;;;;;;;;;;;8.70;99.90;;;;;;5109907;27;19924;-68
2022/11/29 13:01:00;;;;;;;;;;;8.70;99.90;;;;;;5111603;28;19971;-68
2022/11/29 13:03:39;;;;;;;;;;;8.60;99.90;;;;;;5107584;28;19924;-68
2022/11/29 13:06:15;;;;;;;;;;;8.60;99.90;;;;;;5114119;27;19919;-67
2022/11/29 13:08:49;;;;;;;;;;;8.60;99.90;;;;;;5107013;27;20533;-68
2022/11/29 13:11:23;;;;;;;;;;;8.70;99.90;;;;;;5136849;27;20008;-68
2022/11/29 13:14:04;;;;;;;;;;;8.70;99.90;;;;;;5110201;27;19930;-67
2022/11/29 13:16:39;;;;;;;;;;;8.70;99.90;;;;;;5093310;27;19928;-68
2022/11/29 13:19:17;;;;;;;;;;;8.70;99.90;;;;;;5104896;28;19919;-68
2022/11/29 13:21:52;;;;;;;;;;;8.80;99.90;;;;;;5145766;27;19924;-67
2022/11/29 13:24:27;;;;;;;;;;;8.70;99.90;;;;;;5108552;27;19931;-67
2022/11/29 13:26:53;;;;;;;;;;;8.80;99.90;;;;;;5107602;28;19928;-67
2022/11/29 13:29:19;;;;;;;;;;;8.80;99.90;;;;;;5125071;27;19951;-67
2022/11/29 13:31:46;;;;;;;;;;;8.80;99.90;;;;;;5108438;28;20024;-66
2022/11/29 13:34:16;;;;;;;;;;;8.80;99.90;;;;;;5104934;28;19935;-66
2022/11/29 13:36:41;;;;;;;;;;;8.70;99.90;;;;;;5128475;27;19919;-66
2022/11/29 13:39:25;;;;;;;;;;;8.70;99.90;;;;;;5103536;28;19942;-67
2022/11/29 13:41:51;;;;;;;;;;;8.80;99.90;;;;;;5109604;28;19981;-66
2022/11/29 13:44:26;;;;;;;;;;;8.60;99.90;;;;;;5132764;27;19924;-67
2022/11/29 13:47:06;;;;;;;;;;;8.70;99.90;;;;;;5106535;28;20011;-66
2022/11/29 13:49:50;;;;;;;;;;;8.70;99.90;;;;;;5106967;28;19928;-66
2022/11/29 13:52:37;;;;;;;;;;;8.60;99.90;;;;;;5112643;28;19919;-66
2022/11/29 13:55:13;;;;;;;;;;;8.60;99.90;;;;;;5098787;28;20003;-66
2022/11/29 13:57:47;;;;;;;;;;;8.70;99.90;;;;;;5103244;28;19924;-67
2022/11/29 14:00:25;;;;;;;;;;;8.70;99.90;;;;;;5104756;27;19924;-67
2022/11/29 14:02:51;;;;;;;;;;;8.60;99.90;;;;;;5101363;28;19919;-67
2022/11/29 14:05:25;;;;;;;;;;;8.70;99.90;;;;;;5111515;28;19930;-67
2022/11/29 14:08:09;;;;;;;;;;;8.70;99.90;;;;;;5102878;28;19931;-67
2022/11/29 14:10:36;;;;;;;;;;;8.70;99.90;;;;;;5080387;28;19920;-67
2022/11/29 14:13:03;;;;;;;;;;;8.70;99.90;;;;;;5072042;28;19920;-67
2022/11/29 14:15:32;;;;;;;;;;;8.80;99.90;;;;;;5090121;28;19927;-67
2022/11/29 14:17:58;;;;;;;;;;;8.80;99.90;;;;;;5083301;28;20006;-67
2022/11/29 14:20:24;;;;;;;;;;;8.70;99.90;;;;;;5090648;28;19965;-66
2022/11/29 14:23:05;;;;;;;;;;;8.80;99.90;;;;;;5083770;28;20403;-68
2022/11/29 14:25:34;;;;;;;;;;;8.80;99.90;;;;;;5091594;28;19931;-66
2022/11/29 14:28:02;;;;;;;;;;;8.90;99.90;;;;;;5119248;27;19924;-68
2022/11/29 14:30:38;;;;;;;;;;;8.80;99.90;;;;;;5096644;28;19926;-66
2022/11/29 14:33:09;;;;;;;;;;;8.90;99.90;;;;;;5094425;28;19920;-67
2022/11/29 14:35:39;;;;;;;;;;;8.80;99.90;;;;;;5084999;28;19919;-67
2022/11/29 14:38:08;;;;;;;;;;;8.90;99.90;;;;;;5079336;28;20007;-67
2022/11/29 14:40:40;;;;;;;;;;;8.90;99.90;;;;;;5088137;28;19934;-67
2022/11/29 14:43:22;;;;;;;;;;;8.80;99.90;;;;;;5091484;28;19919;-67
2022/11/29 14:46:05;;;;;;;;;;;8.70;99.90;;;;;;5077892;28;20011;-67
2022/11/29 14:48:31;;;;;;;;;;;8.90;99.90;;;;;;5080288;28;19939;-67
2022/11/29 14:51:11;;;;;;;;;;;8.80;99.90;;;;;;5091332;28;20386;-67
2022/11/29 14:53:38;;;;;;;;;;;9.00;99.90;;;;;;5078492;28;20324;-67
2022/11/29 14:56:22;;;;;;;;;;;8.80;99.90;;;;;;5074980;28;20387;-67
2022/11/29 14:59:07;;;;;;;;;;;8.90;99.90;;;;;;5058515;28;20321;-66
2022/11/29 15:01:33;;;;;;;;;;;8.80;99.90;;;;;;5083118;28;19924;-66
2022/11/29 15:04:02;;;;;;;;;;;8.90;99.90;;;;;;5090613;28;19953;-67
2022/11/29 15:06:29;;;;;;;;;;;8.80;99.90;;;;;;5079446;28;19924;-66
2022/11/29 15:08:59;;;;;;;;;;;9.00;99.90;;;;;;5089662;28;19924;-67